Time;durP1;ratioP1;P1;durP2;ratioP2;P2;SDS_P1;SDS_P2;PMS_P1;PMS_P2;Temp;Humidity;BMP_temperature;BMP_pressure;BME280_temperature;BME280_humidity;BME280_pressure;Samples;Min_cycle;Max_cycle;Signal;HPM_P1;HPM_P2
2023/09/05 00:00:45;;;;;;;3.97;3.58;;;;;;;22.11;54.32;95224.63;6051152;28;108936;-61
2023/09/05 00:03:48;;;;;;;3.88;3.47;;;;;;;22.29;53.66;95216.78;6060527;28;108735;-61
2023/09/05 00:06:52;;;;;;;3.22;2.92;;;;;;;22.47;53.13;95215.00;6059234;28;108916;-60
2023/09/05 00:09:59;;;;;;;3.50;3.20;;;;;;;22.54;52.59;95224.19;6049854;28;108904;-61
2023/09/05 00:13:05;;;;;;;3.60;3.30;;;;;;;22.29;53.56;95224.75;6060808;28;109195;-61
2023/09/05 00:16:09;;;;;;;4.32;3.35;;;;;;;22.23;53.60;95210.00;6058355;28;108730;-61
2023/09/05 00:19:12;;;;;;;3.15;2.90;;;;;;;22.37;53.61;95210.72;6057333;28;110197;-61
2023/09/05 00:22:16;;;;;;;3.70;3.40;;;;;;;22.36;53.22;95198.50;6032954;28;109047;-63
2023/09/05 00:25:20;;;;;;;4.10;3.33;;;;;;;22.33;53.29;95207.84;6060849;28;108749;-63
2023/09/05 00:28:23;;;;;;;4.22;3.60;;;;;;;22.01;54.30;95211.53;6061588;28;108722;-62
2023/09/05 00:31:27;;;;;;;3.60;3.30;;;;;;;22.01;54.66;95200.88;6056109;28;109895;-63
2023/09/05 00:34:32;;;;;;;4.13;3.47;;;;;;;22.20;53.73;95205.25;6039500;28;110556;-63
2023/09/05 00:37:35;;;;;;;3.40;3.10;;;;;;;22.47;53.25;95204.34;6055308;28;109443;-63
2023/09/05 00:40:40;;;;;;;4.90;4.50;;;;;;;22.47;53.58;95194.47;6052277;28;110565;-62
2023/09/05 00:43:44;;;;;;;3.67;3.37;;;;;;;22.56;52.74;95200.66;6050428;28;110370;-62
2023/09/05 00:46:49;;;;;;;4.00;3.60;;;;;;;22.58;53.17;95198.50;6060163;28;109150;-62
2023/09/05 00:49:52;;;;;;;4.57;4.18;;;;;;;22.63;53.12;95201.03;6061617;28;109139;-62
2023/09/05 00:52:55;;;;;;;3.92;3.63;;;;;;;22.65;52.68;95198.84;6064688;28;108734;-62
2023/09/05 00:56:00;;;;;;;3.40;3.10;;;;;;;22.67;52.24;95195.88;6062960;28;108825;-64
2023/09/05 00:59:03;;;;;;;3.60;3.30;;;;;;;22.63;52.20;95193.03;6088243;28;108970;-62
2023/09/05 01:02:06;;;;;;;3.15;2.85;;;;;;;22.70;52.38;95195.28;6053961;28;109040;-63
2023/09/05 01:05:10;;;;;;;3.50;3.20;;;;;;;22.75;52.38;95200.47;6058518;28;108689;-63
2023/09/05 01:08:18;;;;;;;3.20;2.90;;;;;;;22.60;53.00;95198.97;6045774;28;109023;-63
2023/09/05 01:11:23;;;;;;;3.70;3.40;;;;;;;22.34;53.67;95201.44;6063008;28;108922;-62
2023/09/05 01:14:26;;;;;;;3.63;3.30;;;;;;;22.20;54.27;95194.59;6061273;28;109065;-62
2023/09/05 01:17:29;;;;;;;3.17;2.88;;;;;;;22.00;54.65;95206.50;6052140;28;111298;-63
2023/09/05 01:20:42;;;;;;;3.80;2.75;;;;;;;21.83;54.47;95212.47;6061347;28;108912;-62
2023/09/05 01:23:48;;;;;;;3.40;2.80;;;;;;;21.88;54.75;95216.91;6059517;28;110038;-63
2023/09/05 01:26:54;;;;;;;2.85;2.45;;;;;;;22.06;54.22;95210.63;6063037;28;108684;-64
2023/09/05 01:29:57;;;;;;;2.85;2.65;;;;;;;22.34;52.82;95197.97;6042493;28;111493;-63
2023/09/05 01:33:01;;;;;;;2.70;2.50;;;;;;;22.51;52.76;95197.31;6060378;28;108784;-65
2023/09/05 01:36:04;;;;;;;2.40;2.20;;;;;;;22.55;52.90;95182.28;6061569;28;109188;-65
2023/09/05 01:39:07;;;;;;;2.50;2.30;;;;;;;22.59;52.95;95186.72;6059655;28;109611;-64
2023/09/05 01:42:12;;;;;;;2.90;2.50;;;;;;;22.47;53.33;95185.69;6042454;28;108752;-65
2023/09/05 01:45:15;;;;;;;3.67;2.90;;;;;;;22.48;53.69;95187.25;6057803;28;109017;-65
2023/09/05 01:48:18;;;;;;;2.92;2.30;;;;;;;22.49;52.99;95184.28;6059489;28;109019;-65
2023/09/05 01:51:21;;;;;;;2.30;1.80;;;;;;;22.58;52.82;95174.50;6057401;28;108919;-65
2023/09/05 01:54:26;;;;;;;2.30;2.10;;;;;;;22.49;52.36;95176.28;6058879;28;108944;-69
2023/09/05 01:57:32;;;;;;;2.40;2.10;;;;;;;22.32;53.53;95181.50;6063666;28;108651;-69
2023/09/05 02:00:35;;;;;;;1.97;1.80;;;;;;;22.33;53.31;95183.06;6047448;28;109264;-67
2023/09/05 02:03:38;;;;;;;2.58;1.98;;;;;;;22.36;53.46;95198.50;6050668;28;108910;-66
2023/09/05 02:06:41;;;;;;;1.90;1.50;;;;;;;22.24;53.23;95187.56;6059983;28;108806;-69
2023/09/05 02:09:45;;;;;;;2.70;1.90;;;;;;;22.25;53.26;95192.59;6056427;28;108939;-66
2023/09/05 02:12:50;;;;;;;2.20;1.90;;;;;;;22.45;52.82;95193.97;6060256;28;108824;-66
2023/09/05 02:15:53;;;;;;;3.13;2.20;;;;;;;22.54;52.24;95199.38;6052808;28;108907;-66
2023/09/05 02:18:56;;;;;;;2.00;1.70;;;;;;;22.60;52.32;95209.66;6062672;28;109002;-66
2023/09/05 02:21:59;;;;;;;2.20;1.80;;;;;;;22.61;51.58;95200.56;6062897;28;108607;-66
2023/09/05 02:25:02;;;;;;;2.22;1.90;;;;;;;22.63;51.28;95211.69;6058527;28;108711;-65
2023/09/05 02:28:07;;;;;;;2.30;2.10;;;;;;;22.66;51.73;95210.28;6056617;28;109256;-65
2023/09/05 02:31:10;;;;;;;2.70;2.10;;;;;;;22.69;51.97;95209.72;6067811;28;109050;-66
2023/09/05 02:34:13;;;;;;;3.58;2.10;;;;;;;22.66;51.18;95203.09;6059547;28;109013;-66
2023/09/05 02:37:16;;;;;;;2.80;2.10;;;;;;;22.67;51.55;95204.66;6048986;28;108912;-67
2023/09/05 02:40:20;;;;;;;2.43;2.20;;;;;;;22.68;50.92;95195.59;6058106;28;108842;-66
2023/09/05 02:43:24;;;;;;;3.00;2.60;;;;;;;22.67;51.34;95201.19;6072450;28;108813;-66
2023/09/05 02:46:28;;;;;;;2.60;2.40;;;;;;;22.69;51.10;95199.81;6073876;28;109059;-65
2023/09/05 02:49:31;;;;;;;3.20;2.60;;;;;;;22.73;51.04;95192.00;6051947;28;108685;-65
2023/09/05 02:52:35;;;;;;;4.50;4.10;;;;;;;22.78;51.20;95204.41;6054613;28;109626;-66
2023/09/05 02:55:49;;;;;;;6.30;5.80;;;;;;;22.78;51.36;95204.41;6061757;28;108949;-67
2023/09/05 02:58:54;;;;;;;5.45;4.95;;;;;;;22.74;51.69;95209.56;6057967;28;110660;-67
2023/09/05 03:01:57;;;;;;;9.25;8.55;;;;;;;22.74;51.73;95208.78;6049914;28;108880;-66
2023/09/05 03:05:01;;;;;;;8.33;7.63;;;;;;;22.74;51.60;95208.78;6061211;28;108870;-66
2023/09/05 03:08:06;;;;;;;6.90;6.30;;;;;;;22.83;51.06;95202.38;6050550;28;108877;-66
2023/09/05 03:11:09;;;;;;;5.90;5.40;;;;;;;22.88;51.10;95209.50;6053898;28;109130;-67
2023/09/05 03:14:14;;;;;;;6.32;5.72;;;;;;;22.92;51.24;95205.91;6054023;28;109305;-66
2023/09/05 03:17:17;;;;;;;6.20;5.70;;;;;;;22.99;51.23;95208.91;6058027;28;108826;-66
2023/09/05 03:20:25;;;;;;;5.88;4.90;;;;;;;23.08;51.16;95213.50;6056478;28;108825;-67
2023/09/05 03:23:28;;;;;;;7.90;7.10;;;;;;;23.11;50.95;95226.25;6046517;28;108937;-66
2023/09/05 03:26:31;;;;;;;8.40;7.10;;;;;;;23.12;51.19;95217.91;6061965;28;108795;-67
2023/09/05 03:29:36;;;;;;;8.90;7.20;;;;;;;23.17;51.20;95233.78;6062093;28;108976;-67
2023/09/05 03:32:40;;;;;;;8.00;7.30;;;;;;;23.18;51.20;95240.72;6062452;28;108587;-66
2023/09/05 03:35:44;;;;;;;7.75;7.05;;;;;;;23.17;51.47;95244.47;6048729;28;110443;-66
2023/09/05 03:38:47;;;;;;;7.72;7.03;;;;;;;23.16;51.36;95240.22;6060725;28;108991;-67
2023/09/05 03:41:51;;;;;;;7.93;7.07;;;;;;;23.15;51.18;95240.53;6042658;28;109092;-69
2023/09/05 03:44:55;;;;;;;12.52;11.43;;;;;;;23.13;52.21;95238.19;6043533;28;108851;-66
2023/09/05 03:47:59;;;;;;;8.52;7.68;;;;;;;23.13;51.95;95232.84;6050354;28;109331;-66
2023/09/05 03:51:04;;;;;;;10.38;9.40;;;;;;;23.18;52.45;95223.91;6060487;28;108825;-68
2023/09/05 03:54:07;;;;;;;9.95;9.05;;;;;;;23.24;52.20;95223.47;6053391;28;108821;-67
2023/09/05 03:57:10;;;;;;;8.90;8.10;;;;;;;23.25;52.30;95225.06;6045598;28;108892;-66
2023/09/05 04:00:15;;;;;;;16.10;9.07;;;;;;;23.26;52.02;95215.94;6056286;28;109004;-68
2023/09/05 04:03:18;;;;;;;8.60;7.73;;;;;;;23.21;51.72;95217.97;6053563;28;109123;-67
2023/09/05 04:06:22;;;;;;;8.00;7.40;;;;;;;23.18;52.23;95213.22;6053457;28;109278;-67
2023/09/05 04:09:25;;;;;;;9.70;8.80;;;;;;;23.14;52.15;95218.41;6043723;28;108891;-66
2023/09/05 04:12:28;;;;;;;18.52;16.08;;;;;;;23.18;53.52;95223.91;6064566;28;108786;-65
2023/09/05 04:15:32;;;;;;;12.30;11.20;;;;;;;23.23;53.11;95232.59;6051906;28;109432;-65
2023/09/05 04:18:36;;;;;;;10.67;9.60;;;;;;;23.28;52.25;95234.31;6055616;28;110412;-67
2023/09/05 04:21:39;;;;;;;10.15;9.13;;;;;;;23.23;52.51;95232.59;6044070;28;108950;-68
2023/09/05 04:24:43;;;;;;;9.30;8.27;;;;;;;23.16;52.06;95244.78;6061399;28;108648;-67
2023/09/05 04:27:46;;;;;;;9.70;8.70;;;;;;;23.12;52.00;95239.28;6061698;28;108902;-67
2023/09/05 04:30:51;;;;;;;9.13;8.23;;;;;;;23.09;52.06;95234.56;6055688;28;108964;-68
2023/09/05 04:33:55;;;;;;;8.80;8.00;;;;;;;23.08;51.99;95235.66;6056871;28;108864;-68
2023/09/05 04:36:58;;;;;;;8.65;7.85;;;;;;;23.06;51.61;95229.84;6061466;28;109183;-67
2023/09/05 04:40:03;;;;;;;7.90;7.30;;;;;;;23.07;51.51;95234.09;6061438;28;108853;-67
2023/09/05 04:43:06;;;;;;;9.10;8.30;;;;;;;23.08;51.97;95237.53;6050219;28;109215;-69
2023/09/05 04:46:10;;;;;;;8.52;7.72;;;;;;;23.03;51.28;95219.00;6060964;28;108728;-68
2023/09/05 04:49:14;;;;;;;9.60;8.80;;;;;;;23.07;51.65;95228.75;6061069;28;108769;-68
2023/09/05 04:52:17;;;;;;;9.97;9.07;;;;;;;23.07;51.29;95234.09;6060913;28;108617;-67
2023/09/05 04:55:20;;;;;;;9.00;8.20;;;;;;;23.07;51.55;95223.41;6050087;28;108949;-68
2023/09/05 04:58:23;;;;;;;8.88;8.07;;;;;;;23.07;51.28;95227.94;6061212;28;108679;-66
2023/09/05 05:01:28;;;;;;;9.65;8.80;;;;;;;23.08;51.63;95232.97;6060914;28;108643;-64
2023/09/05 05:04:31;;;;;;;11.68;10.68;;;;;;;22.96;52.37;95244.22;6055682;28;109100;-64
2023/09/05 05:07:35;;;;;;;14.05;12.75;;;;;;;22.72;52.94;95237.66;6054437;28;108634;-65
2023/09/05 05:10:39;;;;;;;10.70;9.70;;;;;;;22.78;53.10;95245.22;6060660;28;109091;-65
2023/09/05 05:13:42;;;;;;;9.98;9.07;;;;;;;22.86;52.21;95246.38;6060350;28;108650;-64
2023/09/05 05:16:47;;;;;;;10.50;9.70;;;;;;;22.77;52.76;95245.53;6049540;28;108758;-63
2023/09/05 05:19:50;;;;;;;12.03;10.90;;;;;;;22.64;53.19;95239.16;6060179;28;109785;-63
2023/09/05 05:22:53;;;;;;;11.57;10.57;;;;;;;22.62;53.31;95244.81;6060613;28;108712;-63
2023/09/05 05:26:00;;;;;;;11.60;10.70;;;;;;;22.64;54.01;95241.81;6061599;28;108703;-63
2023/09/05 05:29:03;;;;;;;12.90;11.90;;;;;;;22.66;54.07;95244.97;6053888;28;108859;-64
2023/09/05 05:32:07;;;;;;;11.97;11.07;;;;;;;22.65;54.16;95244.19;6064450;28;108709;-62
2023/09/05 05:35:11;;;;;;;11.35;10.48;;;;;;;22.68;53.99;95243.59;6064378;28;108612;-65
2023/09/05 05:38:14;;;;;;;12.00;11.00;;;;;;;22.68;54.12;95246.28;6064301;28;108933;-63
2023/09/05 05:41:17;;;;;;;12.30;11.30;;;;;;;22.72;53.91;95248.31;6054494;28;108903;-64
2023/09/05 05:44:20;;;;;;;12.50;11.40;;;;;;;22.68;54.18;95259.59;6064129;28;108638;-64
2023/09/05 05:47:24;;;;;;;11.80;10.90;;;;;;;22.67;53.98;95266.00;6063669;28;108780;-64
2023/09/05 05:50:28;;;;;;;12.60;11.60;;;;;;;22.66;54.20;95255.66;6056299;28;108704;-63
2023/09/05 05:53:32;;;;;;;11.20;10.30;;;;;;;22.66;54.33;95259.09;6062170;28;108985;-64
2023/09/05 05:56:35;;;;;;;11.30;10.30;;;;;;;22.66;54.51;95271.66;6064550;28;108835;-62
2023/09/05 05:59:40;;;;;;;11.10;10.20;;;;;;;22.68;53.89;95258.78;6063956;28;109159;-63
2023/09/05 06:02:44;;;;;;;11.20;10.30;;;;;;;22.66;53.95;95261.75;6052645;28;108783;-63
2023/09/05 06:05:48;;;;;;;10.40;9.60;;;;;;;22.65;54.33;95256.75;6063707;28;108829;-63
2023/09/05 06:08:51;;;;;;;10.90;10.00;;;;;;;22.66;54.37;95260.97;6063674;28;108985;-63
2023/09/05 06:11:55;;;;;;;11.05;10.15;;;;;;;22.66;54.78;95261.75;6063987;28;108893;-65
2023/09/05 06:14:58;;;;;;;11.73;10.73;;;;;;;22.66;54.70;95264.44;6053221;28;109214;-65
2023/09/05 06:18:03;;;;;;;11.43;10.43;;;;;;;22.68;54.71;95259.59;6063370;28;108625;-65
2023/09/05 06:21:06;;;;;;;12.10;11.10;;;;;;;22.69;54.23;95261.19;6063342;28;108874;-66
2023/09/05 06:24:09;;;;;;;11.82;10.82;;;;;;;22.68;54.34;95259.59;6058304;28;108968;-65
2023/09/05 06:27:12;;;;;;;11.57;10.68;;;;;;;22.68;54.71;95251.59;6057121;28;108921;-65
2023/09/05 06:30:16;;;;;;;12.38;11.30;;;;;;;22.68;54.62;95259.59;6063741;28;108645;-65
2023/09/05 06:33:21;;;;;;;11.60;10.60;;;;;;;22.70;54.20;95257.44;6063150;28;108911;-65
2023/09/05 06:36:24;;;;;;;11.43;10.52;;;;;;;22.73;55.00;95276.56;6053164;28;109365;-66
2023/09/05 06:39:27;;;;;;;11.35;10.45;;;;;;;22.73;54.22;95281.91;6062869;28;108794;-65
2023/09/05 06:42:30;;;;;;;12.35;11.43;;;;;;;22.72;54.26;95275.00;6063029;28;109036;-65
2023/09/05 06:45:34;;;;;;;11.95;11.05;;;;;;;22.72;54.30;95286.47;6062708;28;108890;-65
2023/09/05 06:48:40;;;;;;;12.07;11.18;;;;;;;22.76;54.18;95287.44;6052005;28;109408;-66
2023/09/05 06:51:43;;;;;;;11.90;10.90;;;;;;;22.74;54.72;95273.59;6062681;28;108645;-65
2023/09/05 06:54:46;;;;;;;11.90;10.90;;;;;;;22.77;55.08;95282.88;6062798;28;108589;-66
2023/09/05 06:57:49;;;;;;;11.55;10.65;;;;;;;22.78;54.57;95271.91;6062551;28;108617;-65
2023/09/05 07:00:54;;;;;;;12.30;11.30;;;;;;;22.79;54.53;95278.03;6052365;28;109214;-66
2023/09/05 07:03:59;;;;;;;12.30;11.40;;;;;;;22.82;54.67;95285.41;6062952;28;108882;-66
2023/09/05 07:07:03;;;;;;;11.90;10.90;;;;;;;22.82;55.26;95296.09;6062581;28;108701;-64
2023/09/05 07:10:07;;;;;;;12.40;11.40;;;;;;;22.82;54.95;95306.75;6056395;28;108928;-64
2023/09/05 07:13:10;;;;;;;12.50;11.50;;;;;;;22.98;53.89;95305.28;6059939;28;108853;-64
2023/09/05 07:16:13;;;;;;;12.50;11.30;;;;;;;22.94;54.43;95302.47;6062375;28;109026;-67
2023/09/05 07:19:18;;;;;;;12.02;11.13;;;;;;;22.87;54.43;95318.13;6062359;28;108585;-65
2023/09/05 07:22:22;;;;;;;11.23;10.32;;;;;;;22.83;54.29;95324.34;6051082;28;109052;-63
2023/09/05 07:25:25;;;;;;;12.07;11.17;;;;;;;22.81;53.89;95318.53;6062105;28;108945;-63
2023/09/05 07:28:28;;;;;;;15.05;13.85;;;;;;;22.79;54.03;95320.72;6062618;28;108578;-63
2023/09/05 07:31:31;;;;;;;13.40;12.30;;;;;;;22.78;54.22;95327.13;6062430;28;108681;-63
2023/09/05 07:34:36;;;;;;;12.48;11.40;;;;;;;22.79;53.55;95323.38;6051312;28;108746;-63
2023/09/05 07:37:39;;;;;;;10.80;10.00;;;;;;;22.76;54.00;95334.66;6062856;28;108979;-64
2023/09/05 07:40:42;;;;;;;12.30;11.20;;;;;;;22.77;53.55;95341.56;6062835;28;109005;-64
2023/09/05 07:43:45;;;;;;;10.77;9.88;;;;;;;22.75;53.49;95339.22;6057320;28;108669;-65
2023/09/05 07:46:48;;;;;;;11.05;10.15;;;;;;;22.72;53.77;95339.03;6056086;28;108911;-64
2023/09/05 07:49:53;;;;;;;10.02;9.23;;;;;;;22.72;53.19;95341.69;6061205;28;108926;-63
2023/09/05 07:52:56;;;;;;;10.33;9.47;;;;;;;22.73;53.30;95343.28;6061349;28;108932;-63
2023/09/05 07:55:59;;;;;;;10.50;9.70;;;;;;;22.74;53.12;95337.63;6051810;28;109294;-64
2023/09/05 07:59:03;;;;;;;10.35;9.55;;;;;;;22.75;53.28;95343.75;6061549;28;108954;-62
2023/09/05 08:02:06;;;;;;;9.40;8.60;;;;;;;22.74;53.16;95345.63;6062013;28;108810;-63
2023/09/05 08:05:11;;;;;;;10.05;9.25;;;;;;;22.77;53.21;95336.25;6061554;28;108851;-62
2023/09/05 08:08:15;;;;;;;9.80;9.00;;;;;;;22.77;52.82;95338.91;6051245;28;109175;-63
2023/09/05 08:11:19;;;;;;;10.40;9.60;;;;;;;22.80;52.86;95339.09;6061565;28;108752;-63
2023/09/05 08:14:24;;;;;;;10.20;9.40;;;;;;;22.91;53.22;95336.97;6061859;28;108741;-63
2023/09/05 08:17:30;;;;;;;9.90;9.20;;;;;;;22.98;53.14;95342.66;6061822;28;109316;-63
2023/09/05 08:20:35;;;;;;;10.30;9.43;;;;;;;23.05;52.63;95337.69;6051777;28;109207;-64
2023/09/05 08:23:38;;;;;;;9.80;9.00;;;;;;;23.15;52.35;95341.97;6061556;28;108770;-64
2023/09/05 08:26:41;;;;;;;9.52;8.63;;;;;;;23.26;51.93;95333.44;6061750;28;108818;-64
2023/09/05 08:29:44;;;;;;;9.10;8.40;;;;;;;23.32;51.86;95334.09;6051745;28;108770;-65
2023/09/05 08:32:48;;;;;;;8.80;8.10;;;;;;;23.34;51.69;95333.78;6060651;28;108921;-70
2023/09/05 08:35:53;;;;;;;9.18;8.30;;;;;;;23.34;52.10;95329.25;6061289;28;108988;-69
2023/09/05 08:38:56;;;;;;;9.13;8.33;;;;;;;23.35;52.16;95327.34;6061516;28;108689;-69
2023/09/05 08:42:01;;;;;;;8.80;8.00;;;;;;;23.34;51.86;95336.47;6050695;28;109034;-70
2023/09/05 08:45:05;;;;;;;8.43;7.80;;;;;;;23.37;51.82;95338.56;6060358;28;109311;-70
2023/09/05 08:48:09;;;;;;;10.10;9.30;;;;;;;23.38;52.12;95334.78;6061598;28;109035;-69
2023/09/05 08:51:15;;;;;;;12.47;11.57;;;;;;;23.38;52.12;95343.59;6061297;28;108788;-70
2023/09/05 08:54:18;;;;;;;11.77;10.90;;;;;;;23.37;51.93;95349.22;6050570;28;108803;-69
2023/09/05 08:57:22;;;;;;;12.20;11.20;;;;;;;23.36;51.97;95353.00;6061186;28;109008;-69
2023/09/05 09:00:26;;;;;;;11.87;10.77;;;;;;;23.35;52.27;95340.72;6061296;28;109249;-69
2023/09/05 09:03:30;;;;;;;11.00;10.20;;;;;;;23.37;51.60;95349.22;6060234;28;108960;-68
2023/09/05 09:06:35;;;;;;;10.70;9.80;;;;;;;23.39;51.90;95341.69;6059751;28;108921;-69
2023/09/05 09:09:40;;;;;;;10.35;9.55;;;;;;;23.40;51.72;95344.06;6064769;28;108584;-70
2023/09/05 09:12:44;;;;;;;10.50;9.60;;;;;;;23.40;51.64;95340.59;6064905;28;108827;-70
2023/09/05 09:15:47;;;;;;;9.88;9.07;;;;;;;23.42;51.83;95347.22;6053726;28;108898;-69
2023/09/05 09:19:00;;;;;;;9.40;8.60;;;;;;;23.43;51.57;95334.66;6064841;28;108696;-69
2023/09/05 09:22:05;;;;;;;9.45;8.65;;;;;;;23.43;51.25;95330.09;6064765;28;109014;-70
2023/09/05 09:25:11;;;;;;;9.02;8.32;;;;;;;23.44;51.65;95325.53;6065029;28;108974;-69
2023/09/05 09:28:22;;;;;;;8.80;8.10;;;;;;;23.43;51.23;95326.63;6053354;28;108910;-69
2023/09/05 09:31:27;;;;;;;8.27;7.60;;;;;;;23.43;51.09;95323.97;6064225;28;108869;-69
2023/09/05 09:34:31;;;;;;;9.00;8.20;;;;;;;23.44;51.03;95322.88;6064238;28;108940;-69
2023/09/05 09:37:36;;;;;;;9.50;8.80;;;;;;;23.44;51.12;95320.97;6058980;28;108961;-68
2023/09/05 09:40:39;;;;;;;10.18;9.27;;;;;;;23.45;50.90;95321.75;6058911;28;108737;-69
2023/09/05 09:43:42;;;;;;;9.10;8.20;;;;;;;23.45;51.11;95319.09;6064300;28;108594;-61
2023/09/05 09:46:46;;;;;;;9.00;8.30;;;;;;;23.48;50.59;95321.16;6062988;28;108866;-61
2023/09/05 09:49:52;;;;;;;8.63;7.82;;;;;;;23.51;50.60;95317.84;6053897;28;108901;-60
2023/09/05 09:52:59;;;;;;;8.50;7.88;;;;;;;23.57;50.33;95308.63;6063789;28;108968;-61
2023/09/05 09:56:10;;;;;;;8.10;7.40;;;;;;;23.66;50.03;95311.31;6063652;28;108869;-60
2023/09/05 09:59:18;;;;;;;8.07;7.38;;;;;;;23.71;50.42;95312.00;6063811;28;108611;-60
2023/09/05 10:02:22;;;;;;;7.60;6.90;;;;;;;23.76;49.94;95309.16;6052867;28;108881;-61
2023/09/05 10:05:25;;;;;;;7.85;7.05;;;;;;;23.80;49.93;95307.44;6064161;28;108666;-61
2023/09/05 10:08:30;;;;;;;7.93;7.20;;;;;;;23.84;49.72;95297.69;6063622;28;108805;-60
2023/09/05 10:11:34;;;;;;;7.10;6.60;;;;;;;23.87;49.56;95302.44;6058603;28;108722;-62
2023/09/05 10:14:39;;;;;;;7.43;6.72;;;;;;;23.92;49.70;95311.41;6057611;28;109060;-60
2023/09/05 10:17:43;;;;;;;6.70;6.20;;;;;;;23.92;49.59;95296.16;6063843;28;108374;-60
2023/09/05 10:20:48;;;;;;;6.80;6.30;;;;;;;23.95;49.52;95302.78;6063309;28;108929;-62
2023/09/05 10:23:53;;;;;;;6.60;6.10;;;;;;;23.96;49.18;95307.00;6053088;28;109639;-61
2023/09/05 10:26:56;;;;;;;6.47;5.97;;;;;;;23.98;49.45;95302.94;6063076;28;108717;-61
2023/09/05 10:29:59;;;;;;;6.40;5.90;;;;;;;23.99;49.17;95298.38;6063413;28;108660;-62
2023/09/05 10:33:03;;;;;;;6.90;6.30;;;;;;;23.99;49.10;95295.69;6063138;28;108577;-61
2023/09/05 10:36:06;;;;;;;6.40;5.83;;;;;;;23.99;49.13;95304.50;6053036;28;111791;-60
2023/09/05 10:39:34;;;;;;;6.30;5.80;;;;;;;24.00;48.95;95308.00;6063133;28;108743;-61
2023/09/05 10:42:43;;;;;;;6.10;5.50;;;;;;;23.98;48.82;95305.59;6057524;28;108965;-61
2023/09/05 10:45:55;;;;;;;6.20;5.70;;;;;;;23.98;48.71;95308.28;6056779;28;108849;-62
2023/09/05 10:49:10;;;;;;;5.50;5.00;;;;;;;23.97;48.39;95300.56;6057023;28;108789;-61
2023/09/05 10:52:17;;;;;;;5.80;5.30;;;;;;;24.01;48.55;95309.56;6062479;28;108983;-61
2023/09/05 10:55:44;;;;;;;6.00;5.50;;;;;;;24.00;48.73;95297.31;6062714;28;108525;-61
2023/09/05 10:58:54;;;;;;;5.63;5.13;;;;;;;23.99;48.40;95303.72;6052237;28;108997;-61
2023/09/05 11:02:00;;;;;;;6.10;5.60;;;;;;;23.97;48.39;95306.69;6062454;28;108616;-61
2023/09/05 11:05:04;;;;;;;5.78;5.28;;;;;;;23.97;48.67;95298.69;6062208;28;108574;-60
2023/09/05 11:08:20;;;;;;;5.38;4.95;;;;;;;23.96;48.20;95299.00;6060963;28;109092;-64
2023/09/05 11:11:25;;;;;;;5.40;4.90;;;;;;;23.94;48.37;95315.34;6056095;28;108967;-60
2023/09/05 11:14:33;;;;;;;5.60;5.10;;;;;;;23.92;47.99;95298.84;6062185;28;109091;-60
2023/09/05 11:17:37;;;;;;;5.05;4.65;;;;;;;23.92;47.96;95306.84;6061956;28;108578;-59
2023/09/05 11:20:41;;;;;;;5.35;4.78;;;;;;;23.92;47.80;95301.50;6051985;28;108800;-60
2023/09/05 11:23:52;;;;;;;5.70;4.80;;;;;;;23.90;48.07;95299.16;6061031;28;108968;-60
2023/09/05 11:26:56;;;;;;;5.50;4.95;;;;;;;23.89;48.04;95297.56;6061996;28;108663;-61
2023/09/05 11:30:00;;;;;;;5.00;4.60;;;;;;;23.88;47.66;95293.34;6061745;28;108692;-60
2023/09/05 11:33:08;;;;;;;4.60;4.20;;;;;;;23.84;47.75;95292.34;6051068;28;109168;-60
2023/09/05 11:36:11;;;;;;;4.60;4.15;;;;;;;23.85;47.60;95296.59;6061826;28;108694;-59
2023/09/05 11:39:18;;;;;;;4.70;4.30;;;;;;;23.81;47.50;95298.31;6062244;28;108744;-61
2023/09/05 11:42:30;;;;;;;5.18;4.70;;;;;;;23.80;47.56;95288.72;6057414;28;109309;-60
2023/09/05 11:45:34;;;;;;;4.95;4.50;;;;;;;23.76;47.41;95287.78;6056427;28;109141;-60
2023/09/05 11:48:38;;;;;;;4.63;4.20;;;;;;;23.76;47.31;95297.69;6061572;28;108676;-60
2023/09/05 11:51:42;;;;;;;4.57;4.18;;;;;;;23.74;47.16;95283.84;6061528;28;108774;-60
2023/09/05 11:54:48;;;;;;;4.63;4.22;;;;;;;23.72;47.01;95297.53;6051743;28;108746;-60
2023/09/05 11:57:54;;;;;;;4.80;4.40;;;;;;;23.70;47.04;95282.91;6061926;28;108588;-60
2023/09/05 12:00:57;;;;;;;4.67;4.27;;;;;;;23.69;46.96;95297.34;6062176;28;109130;-59
2023/09/05 12:04:03;;;;;;;4.82;4.10;;;;;;;23.70;46.83;95286.38;6061746;28;108628;-61
2023/09/05 12:07:07;;;;;;;4.95;4.35;;;;;;;23.70;47.06;95280.25;6050954;28;108945;-61
2023/09/05 12:10:10;;;;;;;5.03;4.27;;;;;;;23.70;47.09;95277.56;6061581;28;109029;-61
2023/09/05 12:13:15;;;;;;;4.70;4.30;;;;;;;23.67;47.15;95294.19;6061416;28;108599;-61
2023/09/05 12:16:19;;;;;;;5.10;4.60;;;;;;;23.67;47.21;95278.94;6059311;28;108987;-61
2023/09/05 12:19:28;;;;;;;4.75;4.25;;;;;;;23.66;47.29;95277.38;6054813;28;109059;-61
2023/09/05 12:22:32;;;;;;;5.63;4.40;;;;;;;23.68;47.14;95271.72;6060733;28;108981;-61
2023/09/05 12:25:35;;;;;;;5.78;4.28;;;;;;;23.66;47.13;95280.03;6061059;28;108964;-61
2023/09/05 12:28:59;;;;;;;4.70;4.30;;;;;;;23.66;47.13;95282.72;6050263;28;108777;-61
2023/09/05 12:32:02;;;;;;;5.18;4.55;;;;;;;23.67;46.74;95276.28;6060719;28;108916;-61
2023/09/05 12:35:06;;;;;;;5.40;4.72;;;;;;;23.66;47.13;95281.94;6062097;28;108644;-61
2023/09/05 12:38:10;;;;;;;5.72;5.10;;;;;;;23.67;46.90;95278.94;6065022;28;108634;-61
2023/09/05 12:41:13;;;;;;;4.80;4.40;;;;;;;23.68;46.68;95280.53;6054431;28;108715;-61
2023/09/05 12:44:17;;;;;;;5.35;4.85;;;;;;;23.68;46.35;95271.72;6065074;28;109170;-60
2023/09/05 12:47:21;;;;;;;4.93;4.53;;;;;;;23.69;46.65;95274.09;6064431;28;108730;-60
2023/09/05 12:50:29;;;;;;;4.90;4.40;;;;;;;23.70;46.34;95274.88;6062167;28;108587;-64
2023/09/05 12:53:34;;;;;;;4.70;4.30;;;;;;;23.71;46.44;95279.91;6058999;28;108600;-60
2023/09/05 12:56:40;;;;;;;5.00;4.60;;;;;;;23.70;46.32;95286.38;6064618;28;108934;-61
2023/09/05 12:59:45;;;;;;;4.77;4.37;;;;;;;23.72;46.30;95276.16;6064435;28;108771;-61
2023/09/05 13:02:48;;;;;;;4.88;4.38;;;;;;;23.72;46.29;95280.72;6053868;28;109060;-61
2023/09/05 13:05:52;;;;;;;4.60;4.20;;;;;;;23.71;46.27;95293.28;6064237;28;109049;-60
2023/09/05 13:08:55;;;;;;;4.45;4.07;;;;;;;23.71;46.33;95297.84;6064604;28;108962;-61
2023/09/05 13:11:58;;;;;;;6.07;4.70;;;;;;;23.70;46.03;95297.06;6064491;28;108850;-60
2023/09/05 13:15:03;;;;;;;4.60;4.20;;;;;;;23.68;45.91;95299.22;6054033;28;108845;-63
2023/09/05 13:18:06;;;;;;;5.03;4.50;;;;;;;23.68;46.51;95317.13;6064631;28;109013;-63
2023/09/05 13:21:10;;;;;;;5.00;4.60;;;;;;;23.67;46.20;95319.03;6064215;28;108738;-63
2023/09/05 13:24:13;;;;;;;5.10;4.60;;;;;;;23.66;45.99;95309.44;6064211;28;108925;-63
2023/09/05 13:27:17;;;;;;;4.63;4.22;;;;;;;23.66;46.08;95314.78;6053676;28;109131;-63
2023/09/05 13:30:22;;;;;;;4.97;4.57;;;;;;;23.66;46.35;95322.78;6063847;28;108696;-63
2023/09/05 13:33:25;;;;;;;4.68;4.28;;;;;;;23.65;46.17;95326.56;6064391;28;108761;-63
2023/09/05 13:36:29;;;;;;;5.28;4.78;;;;;;;23.66;46.07;95325.47;6057448;28;108722;-65
2023/09/05 13:39:32;;;;;;;4.90;4.50;;;;;;;23.65;46.09;95331.13;6061802;28;109147;-63
2023/09/05 13:42:36;;;;;;;5.45;4.80;;;;;;;23.65;46.05;95337.25;6064267;28;108706;-63
2023/09/05 13:45:40;;;;;;;5.50;5.00;;;;;;;23.66;46.21;95330.81;6063311;28;109169;-63
2023/09/05 13:48:45;;;;;;;5.00;4.60;;;;;;;23.65;46.23;95323.88;6052040;28;110691;-64
2023/09/05 13:51:48;;;;;;;5.60;4.80;;;;;;;23.65;46.25;95334.56;6063235;28;108948;-63
2023/09/05 13:54:51;;;;;;;4.90;4.50;;;;;;;23.66;46.19;95332.69;6063657;28;108633;-63
2023/09/05 13:57:54;;;;;;;5.20;4.80;;;;;;;23.66;46.04;95335.38;6063534;28;108905;-63
2023/09/05 14:00:59;;;;;;;5.15;4.65;;;;;;;23.65;45.80;95334.56;6053445;28;109535;-63
2023/09/05 14:04:02;;;;;;;4.90;4.40;;;;;;;23.64;46.04;95343.69;6063190;28;108617;-62
2023/09/05 14:07:05;;;;;;;5.43;4.40;;;;;;;23.64;45.83;95342.91;6063517;28;108706;-62
2023/09/05 14:10:12;;;;;;;5.13;4.53;;;;;;;23.64;46.44;95349.03;6058863;28;109371;-63
2023/09/05 14:13:15;;;;;;;4.88;4.38;;;;;;;23.63;45.95;95358.16;6057791;28;108965;-62